• Join FlightAware (Why Join?)
  • Login
  • US Flag 
04:51PM EDT


 

Airport Tracker/Info


-or-


 

Live Flight TrackerFlight Track Log ✈ AFL150 ✈ 26-May-2014 ✈ UUEE / SVO - MUHA / HAV

Flight Track Log - Related Links

Times and Time Zones

All times are in EDT time to prevent confusion due to time zone crossing. See the AFL150 flight status page for this flight to view local times or setup timezone preferences in your user account.

Time Position Orientation Groundspeed Altitude Reporting Facility
EDT Latitude Longitude Course Direction KTS MPH feet Rate Location/Type
06:19AM 56.1044 36.9430 307° West  Level Estimated
06:20AM 56.1787 36.7618 306° West  Level Estimated
06:21AM 56.2528 36.5798 306° West  Level Estimated
06:22AM 56.3266 36.3972 306° West  Level Estimated
06:23AM 56.4001 36.2138 306° West  Level Estimated
06:24AM 56.4734 36.0297 306° West  Level Estimated
06:25AM 56.5464 35.8450 306° West  Level Estimated
06:26AM 56.6191 35.6595 306° West  Level Estimated
06:27AM 56.6916 35.4733 305° West  Level Estimated
06:28AM 56.7637 35.2863 305° West  Level Estimated
06:29AM 56.8356 35.0987 305° West  Level Estimated
06:30AM 56.9072 34.9103 305° West  Level Estimated
06:31AM 56.9785 34.7212 305° West  Level Estimated
06:32AM 57.0495 34.5314 305° West  Level Estimated
06:33AM 57.1203 34.3409 304° West  Level Estimated
06:34AM 57.1908 34.1496 304° West  Level Estimated
06:35AM 57.2609 33.9576 304° West  Level Estimated
06:36AM 57.3308 33.7649 304° West  Level Estimated
06:37AM 57.4003 33.5715 304° West  Level Estimated
06:38AM 57.4696 33.3773 304° West  Level Estimated
06:39AM 57.5386 33.1823 303° West  Level Estimated
06:40AM 57.6073 32.9867 303° West  Level Estimated
06:41AM 57.6756 32.7903 303° West  Level Estimated
06:42AM 57.7437 32.5931 303° West  Level Estimated
06:42AM 56.4572 32.1819 279° West 472 543 36,000  Level FlightAware ADS-B (EVDA / DGP)
06:43AM 56.4770 31.9644 279° West 468 539 36,000  Level FlightAware ADS-B (EVDA / DGP)
06:44AM 56.5008 31.6950 279° West 461 531 36,000  Level FlightAware ADS-B (EVDA / DGP)
06:45AM 56.5218 31.4532 279° West 457 526 36,000  Level FlightAware ADS-B (EVDA / DGP)
06:46AM 56.5472 31.2223 287° West 458 527 36,000  Level FlightAware ADS-B (EVDA / DGP)
06:47AM 56.5955 31.0113 299° West 458 527 36,000  Level FlightAware ADS-B (EVDA / DGP)
06:48AM 56.6723 30.8114 310° West 458 527 36,000  Level FlightAware ADS-B (EVDA / DGP)
06:50AM 56.7496 30.6313 304° West 454 522 36,000  Level FlightAware ADS-B (EVDA / DGP)
06:51AM 56.8182 30.4509 304° West 451 519 36,000  Level FlightAware ADS-B (EVDA / DGP)
06:52AM 56.8916 30.2524 304° West 448 516 36,000  Level FlightAware ADS-B (EVDA / DGP)
06:53AM 56.9727 30.0309 304° West 449 517 36,000  Level FlightAware ADS-B (EVDA / DGP)
06:54AM 57.0426 29.8382 304° West 449 517 36,000  Level FlightAware ADS-B (EVDA / DGP)
06:55AM 57.1060 29.6620 304° West 446 513 36,000  Level FlightAware ADS-B (EVDA / DGP)
06:56AM 57.1805 29.4532 303° West 444 511 36,000  Level FlightAware ADS-B (EVDA / DGP)
06:57AM 57.2471 29.2655 303° West 444 511 36,000  Level FlightAware ADS-B (EVDA / DGP)
06:58AM 57.3148 29.0729 303° West 443 510 36,000  Level FlightAware ADS-B (EVDA / DGP)
06:59AM 57.3698 28.9156 303° West 445 512 36,000  Level FlightAware ADS-B (EVDA / DGP)
07:00AM 57.4448 28.6995 303° West 442 509 36,000  Level FlightAware ADS-B (EVDA / DGP)
07:01AM 57.5125 28.5023 302° West 441 507 36,000  Level FlightAware ADS-B (EVDA / DGP)
07:02AM 57.5756 28.3173 302° West 441 507 36,000  Level FlightAware ADS-B (EVDA / DGP)
07:02AM 57.6118 28.2107 302° West 441 507 36,000  Level FlightAware ADS-B (EVDA / DGP)
07:03AM 57.6542 28.0850 302° West 440 506 36,000  Level FlightAware ADS-B (EVDA / DGP)
07:04AM 57.7077 27.9257 302° West 439 505 36,000  Level FlightAware ADS-B (EVDA / DGP)
07:05AM 57.7712 27.7351 302° West 437 503 36,000  Level FlightAware ADS-B (EVDA / DGP)
07:06AM 57.8337 27.5439 298° West 434 499 36,000  Level FlightAware ADS-B (EVDA / DGP)
07:07AM 57.8771 27.3309 291° West 430 495 36,000  Level FlightAware ADS-B (EVDA / DGP)
07:08AM 57.9295 27.0708 291° West 429 494 36,000  Level FlightAware ADS-B (EVDA / DGP)
07:09AM 57.9716 26.8605 290° West 427 491 36,000  Level FlightAware ADS-B (EVDA / DGP)
07:10AM 58.0121 26.6552 290° West 423 487 36,000  Level FlightAware ADS-B (EVDA / DGP)
07:11AM 58.0517 26.4524 290° West 422 486 36,000  Level FlightAware ADS-B (EVDA / DGP)
07:12AM 58.0908 26.2507 290° West 423 487 36,000  Level FlightAware ADS-B (EVDA / DGP)
07:13AM 58.1314 26.0381 290° West 424 488 36,000  Level FlightAware ADS-B (EVDA / DGP)
07:14AM 58.1549 25.9143 290° West 424 488 36,000  Level FlightAware ADS-B (EFHN)
07:14AM 58.1813 25.7750 290° West 425 489 36,000  Level FlightAware ADS-B (EFHN)
07:15AM 58.2122 25.6090 290° West 426 490 36,000  Level FlightAware ADS-B (EVDA / DGP)
07:16AM 58.2514 25.3978 289° West 429 494 36,000  Level FlightAware ADS-B (EVDA / DGP)
07:17AM 58.2900 25.1871 289° West 430 495 36,000  Level FlightAware ADS-B (EVDA / DGP)
07:18AM 58.3135 25.0579 289° West 430 495 36,000  Level FlightAware ADS-B (EFHN)
07:18AM 58.3338 24.9447 289° West 430 495 36,000  Level FlightAware ADS-B (EFHN)
07:19AM 58.3533 24.8360 289° West 430 495 36,000  Level FlightAware ADS-B (EFHN)
07:19AM 58.3842 24.6616 289° West 429 494 36,000  Level FlightAware ADS-B (EFHN)
07:20AM 58.4018 24.5622 289° West 430 495 36,000  Level FlightAware ADS-B (EFHN)
07:21AM 58.4218 24.4482 288° West 431 496 36,000  Level FlightAware ADS-B (EVDA / DGP)
07:21AM 58.4545 24.2322 286° West 432 497 36,000  Level FlightAware ADS-B (EFHN)
07:22AM 58.4771 24.0809 286° West 432 497 36,000  Level FlightAware ADS-B (EFHN)
07:23AM 58.5136 23.8366 286° West 431 496 36,000  Level FlightAware ADS-B (EFHN)
07:24AM 58.5291 23.7315 286° West 430 495 36,000  Level FlightAware ADS-B (EFHN)
07:24AM 58.5514 23.5787 286° West 430 495 36,000  Level FlightAware ADS-B (EFHN)
07:25AM 58.5722 23.4351 286° West 429 494 36,000  Level FlightAware ADS-B (EFHN)
07:27AM 58.6310 23.0232 285° West 427 491 36,000  Level FlightAware ADS-B (EFHN)
07:27AM 58.6454 22.9200 285° West 426 490 36,000  Level FlightAware ADS-B (EFHN)
07:28AM 58.6615 22.8043 285° West 426 490 36,000  Level FlightAware ADS-B (EFHN)
07:29AM 58.6817 22.6603 285° West 424 488 36,000  Level FlightAware ADS-B (EFHN)
07:29AM 58.6973 22.5457 285° West 424 488 36,000  Level FlightAware ADS-B (EFHN)
07:30AM 58.7122 22.4355 285° West 425 489 36,000  Level FlightAware ADS-B (EFHN)
07:30AM 58.7308 22.2979 285° West 424 488 36,000  Level FlightAware ADS-B (EFHN)
07:31AM 58.7466 22.1807 285° West 424 488 36,000  Level FlightAware ADS-B (EFHN)
07:31AM 58.7652 22.0395 284° West 423 487 36,000  Level FlightAware ADS-B (EFHN)
07:32AM 58.7828 21.9054 284° West 423 487 36,000  Level FlightAware ADS-B (EFHN)
07:33AM 58.7976 21.7928 284° West 422 486 36,000  Level FlightAware ADS-B (EFHN)
07:33AM 58.8127 21.6765 284° West 421 484 36,000  Level FlightAware ADS-B (EFHN)
07:34AM 58.8305 21.5372 284° West 420 483 36,000  Level FlightAware ADS-B (ESKB)
07:35AM 58.8193 21.6254 284° West 419 482 36,000  Level FlightAware ADS-B (EFHN)
07:36AM 58.8441 21.4305 283° West 418 481 36,000  Level FlightAware ADS-B (ESKB)
07:37AM 58.8193 21.6254 286° West 420 483 36,000  Level FlightAware ADS-B (EFHN)
07:38AM 58.8193 21.6254 288° West 422 486 36,000  Level FlightAware ADS-B (EFHN)
07:41AM 58.8193 21.6254 287° West 421 484 36,000  Level FlightAware ADS-B (EFHN)
07:46AM 59.2278 18.9229 286° West 422 486 36,000  Level FlightAware ADS-B (ESKB)
07:47AM 59.2497 18.7757 286° West 423 487 36,000  Level FlightAware ADS-B (ESKB)
07:47AM 59.2690 18.6449 286° West 422 486 36,000  Level FlightAware ADS-B (ESSG)
07:48AM 59.2828 18.5505 286° West 423 487 36,000  Level FlightAware ADS-B (ESKB)
07:48AM 59.3036 18.4064 286° West 424 488 36,000  Level FlightAware ADS-B (ESKB)
07:49AM 59.3243 18.2624 286° West 426 490 36,000  Level FlightAware ADS-B (ESSG)
07:50AM 59.3460 18.1094 286° West 425 489 36,000  Level FlightAware ADS-B (ESKB)
07:50AM 59.3649 17.9765 286° West 422 486 36,000  Level FlightAware ADS-B (ESKB)
07:51AM 59.3792 17.8749 284° West 418 481 36,000  Level FlightAware ADS-B (ESSG)
07:51AM 59.3943 17.7657 284° West 416 479 36,000  Level FlightAware ADS-B (ESSG)
07:52AM 59.4077 17.6675 285° West 419 482 36,000  Level FlightAware ADS-B (ESKB)
07:52AM 59.4171 17.5988 284° West 417 480 36,000  Level FlightAware ADS-B (ESSG)
07:53AM 59.4372 17.4522 285° West 420 483 36,000  Level FlightAware ADS-B (ESKB)
07:53AM 59.4542 17.3275 285° West 421 484 36,000  Level FlightAware ADS-B (ESKB)
07:54AM 59.4768 17.1583 284° West 420 483 36,000  Level FlightAware ADS-B (ESSG)
07:55AM 59.4984 16.9962 285° West 423 487 36,000  Level FlightAware ADS-B (ESKB)
07:55AM 59.5176 16.8497 284° West 423 487 36,000  Level FlightAware ADS-B (ESKB)
07:56AM 59.5352 16.7140 283° West 422 486 36,000  Level FlightAware ADS-B (ESSG)
07:56AM 59.5466 16.6256 284° West 424 488 36,000  Level FlightAware ADS-B (ESKB)
07:57AM 59.5566 16.5483 283° West 423 487 36,000  Level FlightAware ADS-B (ESSG)
07:57AM 59.5714 16.4326 283° West 423 487 36,000  Level FlightAware ADS-B (ESSG)
07:58AM 59.5839 16.3326 284° West 425 489 36,000  Level FlightAware ADS-B (ESKB)
07:58AM 59.6072 16.1475 284° West 426 490 36,000  Level FlightAware ADS-B (ESSG)
07:59AM 59.6210 16.0355 284° West 428 493 36,000  Level FlightAware ADS-B (ESSG)
07:59AM 59.6349 15.9224 284° West 428 493 36,000  Level FlightAware ADS-B (ESSG)
08:00AM 59.6490 15.8079 284° West 427 491 36,000  Level FlightAware ADS-B (ESSG)
08:00AM 59.6630 15.6924 284° West 427 491 36,000  Level FlightAware ADS-B (ESSG)
08:01AM 59.6765 15.5810 283° West 427 491 36,000  Level FlightAware ADS-B (ESSG)
08:01AM 59.6902 15.4655 283° West 426 490 36,000  Level FlightAware ADS-B (ESSG)
08:02AM 59.7033 15.3548 283° West 426 490 36,000  Level FlightAware ADS-B (ESSG)
08:02AM 59.7169 15.2389 283° West 427 491 36,000  Level FlightAware ADS-B (ESSG)
08:03AM 59.7303 15.1239 283° West 427 491 36,000  Level FlightAware ADS-B (ESSG)
08:04AM 59.7496 14.9563 282° West 425 489 36,000  Level FlightAware ADS-B (ESSG)
08:04AM 59.7689 14.7862 282° West 425 489 36,000  Level FlightAware ADS-B (ESSG)
08:05AM 59.7883 14.6136 282° West 427 491 36,000  Level FlightAware ADS-B (ESSG)
08:06AM 59.8077 14.4391 281° West 427 491 36,000  Level FlightAware ADS-B (ESSG)
08:06AM 59.8204 14.3230 281° West 427 491 36,000  Level FlightAware ADS-B (ESSG)
08:07AM 59.8388 14.1539 281° West 427 491 36,000  Level FlightAware ADS-B (ESSG)
08:08AM 59.8571 13.9829 281° West 427 491 36,000  Level FlightAware ADS-B (ESSG)
08:08AM 59.8693 13.8675 281° West 426 490 36,000  Level FlightAware ADS-B (ESSG)
08:09AM 59.8819 13.7480 282° West 427 491 36,000  Level FlightAware ADS-B (ESSG)
08:10AM 59.8996 13.5771 282° West 427 491 36,000  Level FlightAware ADS-B (ESSG)
08:10AM 59.9143 13.4626 288° West 431 496 36,000  Level FlightAware ADS-B (ESSG)
08:11AM 59.9316 13.3503 286° West 429 494 36,000  Level FlightAware ADS-B (ESSG)
08:11AM 59.9573 13.1801 286° West 430 495 36,000  Level FlightAware ADS-B (ESSG)
08:12AM 59.9743 13.0663 286° West 431 496 36,000  Level FlightAware ADS-B (ESSG)
08:12AM 59.9920 12.9471 286° West 432 497 36,000  Level FlightAware ADS-B (ESSG)
08:13AM 60.0170 12.7781 286° West 432 497 36,000  Level FlightAware ADS-B (ESSG)
08:14AM 60.0341 12.6629 285° West 431 496 36,000  Level FlightAware ADS-B (ESSG)
08:14AM 60.0507 12.5477 285° West 431 496 36,000  Level FlightAware ADS-B (ESSG)
08:15AM 60.0674 12.4308 285° West 430 495 36,000  Level FlightAware ADS-B (ESSG)
08:15AM 60.0917 12.2602 286° West 432 497 36,000  Level FlightAware ADS-B (ESSG)
08:16AM 60.1082 12.1439 286° West 432 497 36,000  Level FlightAware ADS-B (ESSG)
08:17AM 60.1321 11.9739 286° West 433 498 36,000  Level FlightAware ADS-B (ESSG)
08:17AM 60.1483 11.8573 286° West 433 498 36,000  Level FlightAware ADS-B (ESSG)
08:18AM 60.1648 11.7378 285° West 435 501 36,000  Level FlightAware ADS-B (ESSG)
08:18AM 60.1811 11.6186 285° West 435 501 36,000  Level FlightAware ADS-B (ESSG)
08:19AM 60.1966 11.5044 285° West 434 499 36,000  Level FlightAware ADS-B (ESSG)
08:19AM 60.2198 11.3323 285° West 433 498 36,000  Level FlightAware ADS-B (ESSG)
08:20AM 60.2352 11.2174 285° West 433 498 36,000  Level FlightAware ADS-B (ESSG)
08:20AM 60.2513 11.0959 285° West 433 498 36,000  Level FlightAware ADS-B (ESSG)
08:21AM 60.2665 10.9801 284° West 430 495 36,000  Level FlightAware ADS-B (ESSG)
08:21AM 60.2850 10.8386 284° West 430 495 36,000  Level FlightAware ADS-B (ESSG)
08:22AM 60.3045 10.6872 284° West 430 495 36,000  Level FlightAware ADS-B (ESSG)
08:23AM 60.3259 10.5202 283° West 432 497 36,000  Level FlightAware ADS-B (ESSG)
08:23AM 60.3416 10.3953 283° West 433 498 36,000  Level FlightAware ADS-B (ESSG)
08:24AM 60.3635 10.2207 283° West 432 497 36,000  Level FlightAware ADS-B (ESSG)
08:25AM 60.3807 10.0811 283° West 432 497 36,000  Level FlightAware ADS-B (ESSG)
08:25AM 60.3994 9.9289 283° West 432 497 36,000  Level FlightAware ADS-B (ESSG)
08:26AM 60.4206 9.7545 283° West 434 499 36,000  Level FlightAware ADS-B (ESSG)
08:27AM 60.4356 9.6304 283° West 436 502 36,000  Level FlightAware ADS-B (ESSG)
08:27AM 60.4525 9.4879 283° West 438 504 36,000  Level FlightAware ADS-B (ESSG)
08:28AM 60.4686 9.3507 283° West 445 512 36,000  Level FlightAware ADS-B (ESSG)
08:28AM 60.4843 9.2150 283° West 448 516 36,000  Level FlightAware ADS-B (ESSG)
08:29AM 60.5034 9.0499 283° West 448 516 36,000  Level FlightAware ADS-B (ESSG)
08:30AM 60.5359 8.7639 283° West 449 517 36,000  Level FlightAware ADS-B (ESSG)
08:31AM 60.5497 8.6400 283° West 446 513 36,000  Level FlightAware ADS-B (ESSG)
08:32AM 60.5882 8.2896 283° West 449 517 36,000 -60 Level FlightAware ADS-B (ESSG)
08:35AM 60.6517 7.6856 282° West  Level Estimated
08:36AM 60.6772 7.4349 282° West  Level Estimated
08:37AM 60.7021 7.1839 282° West  Level Estimated
08:38AM 60.7267 6.9325 281° West  Level Estimated
08:39AM 60.7507 6.6808 281° West  Level Estimated
08:40AM 60.7743 6.4286 281° West  Level Estimated
08:41AM 60.7974 6.1761 281° West  Level Estimated
08:42AM 60.8200 5.9232 281° West  Level Estimated
08:43AM 60.8422 5.6700 280° West  Level Estimated
08:44AM 60.8639 5.4164 280° West  Level Estimated
08:45AM 60.8851 5.1625 280° West  Level Estimated
08:46AM 60.9058 4.9082 280° West  Level Estimated
08:47AM 60.9261 4.6536 279° West  Level Estimated
08:48AM 60.9458 4.3987 279° West  Level Estimated
08:49AM 60.9651 4.1435 279° West  Level Estimated
08:50AM 60.9839 3.8880 279° West  Level Estimated
08:51AM 61.0022 3.6321 279° West  Level Estimated
08:52AM 61.0200 3.3760 278° West  Level Estimated
08:53AM 61.0374 3.1196 278° West  Level Estimated
08:54AM 61.0542 2.8630 278° West  Level Estimated
08:55AM 61.0706 2.6060 278° West  Level Estimated
08:56AM 61.0865 2.3488 277° West  Level Estimated
08:57AM 61.1019 2.0914 277° West  Level Estimated
08:58AM 61.1168 1.8337 277° West  Level Estimated
08:59AM 61.1312 1.5757 277° West  Level Estimated
09:00AM 61.1451 1.3175 276° West  Level Estimated
09:01AM 61.1585 1.0591 276° West  Level Estimated
09:02AM 61.1715 0.8005 276° West  Level Estimated
09:03AM 61.1839 0.5417 276° West  Level Estimated
09:04AM 61.1959 0.2827 276° West  Level Estimated
09:05AM 61.2073 0.0235 275° West  Level Estimated
09:06AM 61.2183 -0.2359 275° West  Level Estimated
09:07AM 61.2287 -0.4955 275° West  Level Estimated
09:08AM 61.2387 -0.7553 275° West  Level Estimated
09:09AM 61.2481 -1.0152 274° West  Level Estimated
09:10AM 61.2571 -1.2752 274° West  Level Estimated
09:11AM 61.2656 -1.5354 274° West  Level Estimated
09:12AM 61.2736 -1.7958 274° West  Level Estimated
09:13AM 61.2810 -2.0562 274° West  Level Estimated
09:14AM 61.2880 -2.3168 273° West  Level Estimated
09:15AM 61.2945 -2.5775 273° West  Level Estimated
09:16AM 61.3005 -2.8383 273° West  Level Estimated
09:17AM 61.3059 -3.0992 273° West  Level Estimated
09:18AM 61.3109 -3.3602 272° West  Level Estimated
09:19AM 61.3154 -3.6213 272° West  Level Estimated
09:20AM 61.3194 -3.8824 272° West  Level Estimated
09:21AM 61.3228 -4.1436 272° West  Level Estimated
09:22AM 61.3258 -4.4049 271° West  Level Estimated
09:23AM 61.3283 -4.6662 271° West  Level Estimated
09:24AM 61.3302 -4.9275 271° West  Level Estimated
09:25AM 61.3317 -5.1888 271° West  Level Estimated
09:26AM 61.3327 -5.4502 271° West  Level Estimated
09:27AM 61.3331 -5.7116 270° West  Level Estimated
09:28AM 61.3331 -5.9730 270° West  Level Estimated
09:29AM 61.3325 -6.2344 270° West  Level Estimated
09:30AM 61.3315 -6.4958 270° West  Level Estimated
09:31AM 61.3299 -6.7571 269° West  Level Estimated
09:32AM 61.3279 -7.0185 269° West  Level Estimated
09:33AM 61.3254 -7.2798 269° West  Level Estimated
09:34AM 61.3223 -7.5410 269° West  Level Estimated
09:35AM 61.3187 -7.8022 268° West  Level Estimated
09:36AM 61.3147 -8.0633 268° West  Level Estimated
09:37AM 61.3101 -8.3244 268° West  Level Estimated
09:38AM 61.3051 -8.5853 268° West  Level Estimated
09:39AM 61.2995 -8.8462 268° West  Level Estimated
09:40AM 61.2935 -9.1070 267° West  Level Estimated
09:41AM 61.2869 -9.3677 267° West  Level Estimated
09:42AM 61.2799 -9.6283 267° West  Level Estimated
09:43AM 61.2723 -9.8887 267° West  Level Estimated
09:44AM 61.2643 -10.1490 266° West  Level Estimated
09:45AM 61.2557 -10.4092 266° West  Level Estimated
09:46AM 61.2467 -10.6692 266° West  Level Estimated
09:47AM 61.2371 -10.9291 266° West  Level Estimated
09:48AM 61.2271 -11.1888 266° West  Level Estimated
09:49AM 61.2165 -11.4484 265° West  Level Estimated
09:50AM 61.2055 -11.7078 265° West  Level Estimated
09:51AM 61.1940 -11.9669 265° West  Level Estimated
09:52AM 61.1819 -12.2259 265° West  Level Estimated
09:53AM 61.1694 -12.4847 264° West  Level Estimated
09:54AM 61.1564 -12.7433 264° West  Level Estimated
09:55AM 61.1429 -13.0017 264° West  Level Estimated
09:56AM 61.1289 -13.2598 264° West  Level Estimated
09:57AM 61.1144 -13.5177 263° West  Level Estimated
09:58AM 61.0994 -13.7754 263° West  Level Estimated
09:59AM 61.0839 -14.0328 263° West  Level Estimated
10:00AM 61.0680 -14.2900 263° West  Level Estimated
10:01AM 61.0515 -14.5469 263° West  Level Estimated
10:02AM 61.0346 -14.8035 262° West  Level Estimated
10:03AM 61.0172 -15.0598 262° West  Level Estimated
10:04AM 60.9993 -15.3159 262° West  Level Estimated
10:05AM 60.9809 -15.5717 262° West  Level Estimated
10:06AM 60.9620 -15.8272 261° West  Level Estimated
10:07AM 60.9426 -16.0823 261° West  Level Estimated
10:08AM 60.9228 -16.3372 261° West  Level Estimated
10:09AM 60.9025 -16.5917 261° West  Level Estimated
10:10AM 60.8817 -16.8459 261° West  Level Estimated
10:11AM 60.8604 -17.0998 260° West  Level Estimated
10:12AM 60.8386 -17.3533 260° West  Level Estimated
10:13AM 60.8164 -17.6065 260° West  Level Estimated
10:14AM 60.7937 -17.8593 260° West  Level Estimated
10:15AM 60.7705 -18.1118 259° West  Level Estimated
10:16AM 60.7469 -18.3639 259° West  Level Estimated
10:17AM 60.7227 -18.6156 259° West  Level Estimated
10:17AM 61.0000 -20.0000 263° West 463 533 35,000  Level ETMS Enhanced Traffic Management System
10:18AM 60.6981 -18.8669 259° West  Level Estimated
10:19AM 60.6730 -19.1179 259° West  Level Estimated
10:20AM 60.6475 -19.3684 258° West  Level Estimated
10:21AM 60.6215 -19.6186 258° West  Level Estimated
10:22AM 60.5950 -19.8683 258° West  Level Estimated
10:23AM 60.8954 -21.5756 262° West 463 533 35,000  Level FlightAware Transoceanic
10:24AM 60.8762 -21.8372 261° West 463 533 35,000  Level FlightAware Transoceanic
10:25AM 60.8564 -22.0984 261° West 463 533 35,000  Level FlightAware Transoceanic
10:26AM 60.8362 -22.3593 261° West 463 533 35,000  Level FlightAware Transoceanic
10:27AM 60.8155 -22.6199 261° West 463 533 35,000  Level FlightAware Transoceanic
10:28AM 60.7942 -22.8801 260° West 463 533 35,000  Level FlightAware Transoceanic
10:29AM 60.7725 -23.1400 260° West 463 533 35,000  Level FlightAware Transoceanic
10:30AM 60.7503 -23.3995 260° West 463 533 35,000  Level FlightAware Transoceanic
10:31AM 60.7275 -23.6587 260° West 463 533 35,000  Level FlightAware Transoceanic
10:32AM 60.7043 -23.9175 259° West 463 533 35,000  Level FlightAware Transoceanic
10:33AM 60.6805 -24.1759 259° West 463 533 35,000  Level FlightAware Transoceanic
10:34AM 60.6563 -24.4340 259° West 463 533 35,000  Level FlightAware Transoceanic
10:35AM 60.6315 -24.6916 259° West 463 533 35,000  Level FlightAware Transoceanic
10:36AM 60.6063 -24.9489 259° West 463 533 35,000  Level FlightAware Transoceanic
10:37AM 60.5806 -25.2057 258° West 463 533 35,000  Level FlightAware Transoceanic
10:38AM 60.5544 -25.4621 258° West 463 533 35,000  Level FlightAware Transoceanic
10:39AM 60.5277 -25.7181 258° West 463 533 35,000  Level FlightAware Transoceanic
10:40AM 60.5005 -25.9737 258° West 463 533 35,000  Level FlightAware Transoceanic
10:41AM 60.4728 -26.2288 257° West 463 533 35,000  Level FlightAware Transoceanic
10:42AM 60.4446 -26.4835 257° West 463 533 35,000  Level FlightAware Transoceanic
10:43AM 60.4160 -26.7378 257° West 463 533 35,000  Level FlightAware Transoceanic
10:44AM 60.3868 -26.9916 257° West 463 533 35,000  Level FlightAware Transoceanic
10:45AM 60.3572 -27.2450 257° West 463 533 35,000  Level FlightAware Transoceanic
10:46AM 60.3271 -27.4979 256° West 463 533 35,000  Level FlightAware Transoceanic
10:47AM 60.2965 -27.7503 256° West 463 533 35,000  Level FlightAware Transoceanic
10:48AM 60.2655 -28.0022 256° West 463 533 35,000  Level FlightAware Transoceanic
10:49AM 60.2339 -28.2537 256° West 463 533 35,000  Level FlightAware Transoceanic
10:50AM 60.2019 -28.5047 255° West 463 533 35,000  Level FlightAware Transoceanic
10:51AM 60.1694 -28.7552 255° West 463 533 35,000  Level FlightAware Transoceanic
10:52AM 60.1365 -29.0051 255° West 463 533 35,000  Level FlightAware Transoceanic
10:53AM 60.1031 -29.2546 255° West 463 533 35,000  Level FlightAware Transoceanic
10:54AM 60.0692 -29.5036 255° West 463 533 35,000  Level FlightAware Transoceanic
10:55AM 60.0348 -29.7521 254° West 463 533 35,000  Level FlightAware Transoceanic
10:56AM 59.9886 -29.9853 248° West  Level Estimated
10:57AM 59.9420 -30.2178 248° West  Level Estimated
10:58AM 59.8949 -30.4498 248° West  Level Estimated
10:59AM 59.8475 -30.6810 248° West  Level Estimated
11:00AM 59.7996 -30.9116 248° West  Level Estimated
11:01AM 59.7514 -31.1415 247° West  Level Estimated
11:02AM 59.7028 -31.3708 247° West  Level Estimated
11:03AM 59.6537 -31.5994 247° West  Level Estimated
11:04AM 59.6043 -31.8273 247° West  Level Estimated
11:05AM 59.5544 -32.0545 247° West  Level Estimated
11:06AM 59.5042 -32.2811 246° West  Level Estimated
11:07AM 59.4536 -32.5070 246° West  Level Estimated
11:08AM 59.4025 -32.7322 246° West  Level Estimated
11:09AM 59.3512 -32.9568 246° West  Level Estimated
11:10AM 59.2994 -33.1806 246° West  Level Estimated
11:11AM 59.2472 -33.4038 246° West  Level Estimated
11:12AM 59.1947 -33.6263 245° Southwest  Level Estimated
11:13AM 59.1417 -33.8481 245° Southwest  Level Estimated
11:14AM 59.0884 -34.0692 245° Southwest  Level Estimated
11:15AM 59.0348 -34.2897 245° Southwest  Level Estimated
11:16AM 58.9807 -34.5094 245° Southwest  Level Estimated
11:17AM 58.9263 -34.7285 244° Southwest  Level Estimated
11:18AM 58.8715 -34.9468 244° Southwest  Level Estimated
11:19AM 58.8163 -35.1645 244° Southwest  Level Estimated
11:20AM 58.7608 -35.3815 244° Southwest  Level Estimated
11:21AM 58.7049 -35.5977 244° Southwest  Level Estimated
11:22AM 58.6487 -35.8133 243° Southwest  Level Estimated
11:23AM 58.5921 -36.0282 243° Southwest  Level Estimated
11:24AM 58.5351 -36.2424 243° Southwest  Level Estimated
11:24AM 59.4500 -36.2333 242° Southwest 430 495 35,000  Level Gander Center
11:25AM 58.4778 -36.4559 243° Southwest  Level Estimated
11:25AM 59.4333 -36.4667 262° West 420 483 35,000  Level Gander Center
11:26AM 58.4201 -36.6687 243° Southwest  Level Estimated
11:26AM 59.4000 -36.6667 252° West 430 495 35,000  Level Gander Center
11:27AM 58.3621 -36.8808 243° Southwest  Level Estimated
11:27AM 59.3667 -36.8833 253° West 420 483 35,000  Level Gander Center
11:28AM 58.3037 -37.0922 242° Southwest  Level Estimated
11:28AM 59.3333 -37.1167 254° West 420 483 35,000  Level Gander Center
11:29AM 58.2450 -37.3029 242° Southwest  Level Estimated
11:29AM 59.3333 -37.3333 270° West 420 483 35,000  Level Gander Center
11:30AM 59.3000 -37.5500 253° West 420 483 35,000  Level Gander Center
11:31AM 59.2667 -37.7833 254° West 420 483 35,000  Level Gander Center
11:32AM 59.2333 -38.0000 253° West 420 483 35,000  Level Gander Center
11:33AM 59.2167 -38.1833 260° West 420 483 35,000  Level Gander Center
11:34AM 59.1833 -38.4000 253° West 420 483 35,000  Level Gander Center
11:35AM 59.1667 -38.6333 262° West 410 472 35,000  Level Gander Center
11:36AM 59.1333 -38.8500 253° West 410 472 35,000  Level Gander Center
11:37AM 59.1000 -39.0833 255° West 420 483 35,000  Level Gander Center
11:38AM 59.0833 -39.2667 260° West 420 483 35,000  Level Gander Center
11:39AM 59.0500 -39.4833 253° West 420 483 35,000  Level Gander Center
11:40AM 59.0167 -39.7000 253° West 420 483 35,000  Level Gander Center
11:41AM 58.9833 -39.9333 255° West 420 483 35,000  Level Gander Center
11:42AM 58.9500 -40.1500 253° West 420 483 35,000  Level Gander Center
11:43AM 58.9167 -40.3333 251° West 420 483 35,000  Level Gander Center
11:44AM 58.8833 -40.5500 254° West 420 483 35,000  Level Gander Center
11:45AM 58.8500 -40.7667 254° West 420 483 35,000  Level Gander Center
11:46AM 58.8167 -40.9833 254° West 420 483 35,000  Level Gander Center
11:47AM 58.7833 -41.2167 255° West 420 483 35,000  Level Gander Center
11:48AM 58.7500 -41.4000 251° West 420 483 35,000  Level Gander Center
11:49AM 58.7167 -41.6167 254° West 420 483 35,000  Level Gander Center
11:50AM 58.6833 -41.8333 254° West 420 483 35,000  Level Gander Center
11:51AM 58.6333 -42.0500 246° West 420 483 35,000  Level Gander Center
11:52AM 58.6000 -42.2667 254° West 420 483 35,000  Level Gander Center
11:53AM 58.5667 -42.4833 254° West 420 483 35,000  Level Gander Center
11:54AM 58.5500 -42.7000 262° West 420 483 35,000  Level Gander Center
11:55AM 58.5000 -42.8833 242° Southwest 420 483 35,000  Level Gander Center
11:56AM 58.4667 -43.1000 254° West 430 495 35,000  Level Gander Center
11:57AM 58.4333 -43.3167 254° West 430 495 35,000  Level Gander Center
11:58AM 58.3833 -43.5333 246° West 430 495 35,000  Level Gander Center
11:59AM 58.3500 -43.7500 254° West 430 495 35,000  Level Gander Center
12:00PM 58.3167 -43.9500 252° West 430 495 35,000  Level Gander Center
12:01PM 58.2667 -44.1667 246° West 430 495 35,000  Level Gander Center
12:02PM 58.2333 -44.3833 254° West 430 495 35,000  Level Gander Center
12:03PM 58.1833 -44.6000 246° West 430 495 35,000  Level Gander Center
12:04PM 58.1500 -44.8167 254° West 430 495 35,000  Level Gander Center
12:05PM 58.1000 -45.0167 245° Southwest 430 495 35,000  Level Gander Center
12:06PM 58.0667 -45.2333 254° West 430 495 35,000  Level Gander Center
12:07PM 58.0167 -45.4500 247° West 430 495 35,000  Level Gander Center
12:08PM 57.9833 -45.6167 249° West 430 495 35,000  Level Gander Center
12:09PM 57.9333 -45.8333 247° West 430 495 35,000  Level Gander Center
12:10PM 57.8833 -46.0500 247° West 430 495 35,000  Level Gander Center
12:11PM 57.8500 -46.2500 253° West 430 495 35,000  Level Gander Center
12:12PM 57.8000 -46.4667 247° West 430 495 35,000  Level Gander Center
12:13PM 57.7500 -46.6833 247° West 430 495 35,000  Level Gander Center
12:14PM 57.7000 -46.8833 245° Southwest 440 506 35,000  Level Gander Center
12:15PM 57.6500 -47.1167 248° West 440 506 35,000  Level Gander Center
12:16PM 57.6167 -47.3333 254° West 440 506 35,000  Level Gander Center
12:17PM 57.5667 -47.5333 245° Southwest 440 506 35,000  Level Gander Center
12:18PM 57.5167 -47.7500 247° West 440 506 35,000  Level Gander Center
12:19PM 57.4667 -47.9500 245° Southwest 440 506 35,000  Level Gander Center
12:20PM 57.4333 -48.1500 253° West 440 506 35,000  Level Gander Center
12:21PM 57.3833 -48.3500 245° Southwest 440 506 35,000  Level Gander Center
12:22PM 57.3333 -48.5667 247° West 440 506 35,000  Level Gander Center
12:23PM 57.2833 -48.7667 245° Southwest 440 506 35,000  Level Gander Center
12:24PM 57.2333 -48.9667 245° Southwest 440 506 35,000  Level Gander Center
12:25PM 57.1667 -49.1833 240° Southwest 440 506 35,000  Level Gander Center
12:26PM 57.1167 -49.3833 245° Southwest 440 506 35,000  Level Gander Center
12:27PM 57.0833 -49.6167 255° West 440 506 35,000  Level Gander Center
12:28PM 57.0333 -49.8167 245° Southwest 450 518 35,000  Level Gander Center
12:29PM 56.9833 -50.0167 245° Southwest 450 518 35,000  Level Gander Center
12:30PM 56.9500 -50.2333 254° West 450 518 35,000  Level Gander Center
12:31PM 56.9167 -50.4333 253° West 440 506 35,000  Level Gander Center
12:43PM 56.4000 -53.0333 228° Southwest 460 529 35,000  Level Gander Center
12:44PM 55.8898 -52.5700 228° Southwest  Level FlightAware Approximate
12:44PM 56.3667 -53.2500 255° West 450 518 35,000  Level Gander Center
12:45PM 55.8063 -52.7355 228° Southwest  Level FlightAware Approximate
12:45PM 56.3167 -53.4833 249° West 450 518 35,000  Level Gander Center
12:46PM 55.7226 -52.9004 228° Southwest  Level FlightAware Approximate
12:46PM 56.2833 -53.6667 252° West 450 518 35,000  Level Gander Center
12:47PM 55.6387 -53.0645 228° Southwest  Level FlightAware Approximate
12:47PM 56.2333 -53.8833 248° West 440 506 35,000  Level Gander Center
12:48PM 55.5545 -53.2280 228° Southwest  Level FlightAware Approximate
12:48PM 56.1833 -54.0667 244° Southwest 440 506 35,000  Level Gander Center
12:49PM 56.1500 -54.3000 256° West 450 518 35,000  Level Gander Center
12:50PM 56.0833 -54.5167 241° Southwest 450 518 35,000  Level Gander Center
12:57PM 55.7500 -55.9667 247° West 450 518 35,000  Level Gander Center
12:58PM 55.7000 -56.1500 244° Southwest 450 518 35,000  Level Gander Center
12:59PM 55.6997 -56.2376 248° West  Level FlightAware Approximate
12:59PM 55.6000 -56.3167 223° Southwest 450 518 35,000  Level Gander Center
01:00PM 55.6512 -56.4424 247° West  Level FlightAware Approximate
01:00PM 55.5333 -56.4667 232° Southwest 450 518 35,000  Level Gander Center
01:01PM 55.6023 -56.6468 247° West  Level FlightAware Approximate
01:01PM 55.4333 -56.6000 217° Southwest 450 518 35,000  Level Gander Center
01:02PM 55.5530 -56.8506 247° West  Level FlightAware Approximate
01:02PM 55.3333 -56.7500 220° Southwest 450 518 35,000  Level Gander Center
01:03PM 55.2333 -56.9167 224° Southwest 450 518 35,000  Level Gander Center
01:04PM 55.1667 -57.0667 232° Southwest 450 518 35,000  Level Gander Center
01:05PM 55.0667 -57.2333 224° Southwest 450 518 35,000  Level Gander Center
01:06PM 54.9667 -57.3833 221° Southwest 450 518 35,000  Level Gander Center
01:07PM 54.8833 -57.5333 226° Southwest 450 518 35,000  Level Gander Center
01:08PM 54.7833 -57.6833 221° Southwest 450 518 35,000  Level Gander Center
01:09PM 54.7000 -57.8167 223° Southwest 460 529 35,000  Level Gander Center
01:10PM 54.6000 -57.9667 221° Southwest 450 518 35,000  Level Gander Center
01:11PM 54.5167 -58.1167 226° Southwest 460 529 35,000 300 Level Gander Center
01:12PM 54.4167 -58.2667 221° Southwest 460 529 35,700 480 Climbing Gander Center
01:13PM 54.3167 -58.4167 221° Southwest 450 518 36,000 120 Climbing Gander Center
01:14PM 54.2333 -58.5667 226° Southwest 460 529 36,000  Level Gander Center
01:15PM 54.1333 -58.7167 221° Southwest 460 529 36,000  Level Gander Center
01:16PM 54.0333 -58.8667 221° Southwest 460 529 36,000  Level Gander Center
01:17PM 53.9500 -58.9833 220° Southwest 460 529 36,000  Level Gander Center
01:18PM 53.8500 -59.1333 222° Southwest 460 529 36,000  Level Gander Center
01:19PM 53.7667 -59.2667 223° Southwest 460 529 36,000  Level Gander Center
01:20PM 53.6667 -59.4167 222° Southwest 460 529 36,000  Level Gander Center
01:21PM 53.5667 -59.5667 222° Southwest 460 529 36,000  Level Gander Center
01:22PM 53.4667 -59.7167 222° Southwest 460 529 36,000  Level Gander Center
01:23PM 53.3667 -59.8500 219° Southwest 460 529 36,000  Level Gander Center
01:24PM 53.2833 -60.0000 227° Southwest 460 529 36,000  Level Gander Center
01:25PM 53.1667 -60.1333 214° Southwest 460 529 36,000  Level Gander Center
01:26PM 53.0833 -60.2833 227° Southwest 460 529 36,000  Level Gander Center
01:27PM 53.0000 -60.4167 224° Southwest 450 518 36,000  Level Gander Center
01:28PM 52.9000 -60.5667 222° Southwest 450 518 36,000  Level Gander Center
01:29PM 52.8167 -60.6667 216° Southwest 450 518 36,000  Level Gander Center
01:30PM 52.7167 -60.8167 222° Southwest 450 518 36,000 -300 Level Gander Center
01:31PM 52.6167 -60.9500 219° Southwest 460 529 35,500 -540 Descending Gander Center
01:32PM 52.5167 -61.0833 219° Southwest 460 529 35,000 -300 Descending Gander Center
01:33PM 52.4167 -61.2333 222° Southwest 460 529 35,000  Level Gander Center
01:34PM 52.3167 -61.3667 219° Southwest 460 529 35,000  Level Gander Center
01:35PM 52.2500 -61.4500 217° Southwest 460 529 35,000  Level Moncton Center
01:36PM 52.1333 -61.5833 215° Southwest 450 518 35,000  Level Moncton Center
01:37PM 52.0167 -61.7667 224° Southwest 450 518 35,000  Level Gander Center
01:38PM 51.9167 -61.8833 216° Southwest 460 529 35,000  Level Gander Center
01:39PM 51.8167 -62.0167 220° Southwest 460 529 35,000  Level Gander Center
01:40PM 51.7333 -62.1500 225° Southwest 460 529 35,000  Level Gander Center
01:41PM 51.6333 -62.2833 220° Southwest 460 529 35,000  Level Gander Center
01:42PM 51.5333 -62.4167 220° Southwest 460 529 35,000  Level Gander Center
01:43PM 51.4500 -62.5167 217° Southwest 460 529 35,000  Level Moncton Center
01:44PM 51.3500 -62.6333 216° Southwest 460 529 35,000  Level Moncton Center
01:45PM 51.2500 -62.7667 220° Southwest 460 529 35,000  Level Moncton Center
01:46PM 51.1500 -62.9333 226° Southwest 460 529 35,000  Level Gander Center
01:47PM 51.0333 -63.0667 216° Southwest 460 529 35,000  Level Gander Center
01:48PM 50.9333 -63.2000 220° Southwest 470 541 35,000  Level Gander Center
01:49PM 50.8333 -63.3167 216° Southwest 470 541 35,000  Level Gander Center
01:50PM 50.7333 -63.4500 220° Southwest 470 541 35,000  Level Gander Center
01:51PM 50.6333 -63.5833 220° Southwest 460 529 35,000  Level Gander Center
01:52PM 50.5333 -63.7000 217° Southwest 460 529 35,000  Level Gander Center
01:53PM 50.4333 -63.8000 213° Southwest 460 529 35,000  Level Gander Center
01:54PM 50.3167 -63.9500 219° Southwest 460 529 35,000  Level Gander Center
01:55PM 50.2167 -64.0500 213° Southwest 450 518 35,000  Level Gander Center
01:56PM 50.1333 -64.1833 226° Southwest 460 529 35,000  Level Gander Center
01:57PM 50.0333 -64.3000 217° Southwest 460 529 35,000  Level Gander Center
01:58PM 49.9333 -64.4333 221° Southwest 460 529 35,000  Level Gander Center
01:59PM 49.8167 -64.5500 213° Southwest 460 529 35,000  Level Gander Center
02:00PM 49.7167 -64.6667 217° Southwest 460 529 35,000  Level Gander Center
02:01PM 49.6167 -64.8000 221° Southwest 460 529 35,000  Level Gander Center
02:02PM 49.5167 -64.9167 217° Southwest 460 529 35,000  Level Gander Center
02:03PM 49.4167 -65.0333 217° Southwest 460 529 35,000  Level Gander Center
02:04PM 49.3000 -65.1500 213° Southwest 470 541 35,000  Level Gander Center
02:05PM 49.2167 -65.2500 218° Southwest 460 529 35,000  Level Moncton Center
02:06PM 49.1167 -65.3667 217° Southwest 460 529 35,000  Level Moncton Center
02:07PM 49.0167 -65.5000 221° Southwest 460 529 35,000  Level Moncton Center
02:08PM 48.9167 -65.6000 213° Southwest 460 529 35,000  Level Moncton Center
02:09PM 48.8167 -65.7167 218° Southwest 460 529 35,000  Level Moncton Center
02:10PM 48.7167 -65.8500 221° Southwest 470 541 35,000  Level Moncton Center
02:11PM 48.6167 -65.9500 213° Southwest 470 541 35,000  Level Moncton Center
02:12PM 48.4833 -66.0833 214° Southwest 470 541 35,000  Level Moncton Center
02:13PM 48.3833 -66.1833 214° Southwest 470 541 35,000  Level Moncton Center
02:14PM 48.2833 -66.3167 222° Southwest 470 541 35,000  Level Moncton Center
02:15PM 48.1833 -66.4333 218° Southwest 470 541 35,000  Level Moncton Center
02:16PM 48.0833 -66.5333 214° Southwest 470 541 35,000  Level Moncton Center
02:17PM 47.9667 -66.6500 214° Southwest 470 541 35,000  Level Moncton Center
02:18PM 47.8500 -66.7833 218° Southwest 470 541 35,000  Level Gander Center
02:19PM 47.7333 -66.9000 214° Southwest 470 541 35,000  Level Gander Center
02:20PM 47.6500 -66.9833 214° Southwest 470 541 35,000  Level Moncton Center
02:21PM 47.5500 -67.1000 218° Southwest 460 529 35,000  Level Moncton Center
02:27PM 46.9265 -67.8961 222° Southwest 448 516 35,000  Level FlightAware ADS-B (CYSG)
02:28PM 46.8213 -68.0201 213° Southwest 462 532 35,000 480 Level FlightAware ADS-B (KBGR)
02:29PM 46.7354 -68.0897 206° Southwest 471 542 35,900 780 Climbing FlightAware ADS-B (CYSG)
02:30PM 46.6806 -68.1239 200° South 486 559 36,000 120 Climbing FlightAware ADS-B (KBGR)
02:30PM 46.6575 -68.1359 197° South 494 568 36,000  Level FlightAware ADS-B (CYSG)
02:30PM 46.6021 -68.1601 198° South 488 562 36,000  Level FlightAware ADS-B (KBGR)
02:31PM 46.5122 -68.2019 197° South 481 554 36,000  Level FlightAware ADS-B (CYSG)
02:32PM 46.4212 -68.2414 196° South 491 565 36,000  Level FlightAware ADS-B (KBGR)
02:32PM 46.3554 -68.2687 196° South 500 575 36,000  Level FlightAware ADS-B (CYSG)
02:33PM 46.2850 -68.2975 196° South 487 560 36,000  Level FlightAware ADS-B (CYSG)
02:33PM 46.2170 -68.3251 196° South 481 554 36,000  Level FlightAware ADS-B (CYSG)
02:34PM 46.1351 -68.3589 196° South 487 560 36,000  Level FlightAware ADS-B (CYSG)
02:35PM 46.0338 -68.4001 196° South 485 558 36,000  Level FlightAware ADS-B (CYSG)
02:35PM 45.9682 -68.4268 196° South 483 556 36,000  Level FlightAware ADS-B (CYSG)
02:36PM 45.8762 -68.4642 196° South 488 562 36,000  Level FlightAware ADS-B (CYSG)
02:36PM 45.8089 -68.4913 196° South 491 565 36,000  Level FlightAware ADS-B (CYSG)
02:37PM 45.7425 -68.5180 196° South 494 568 36,000  Level FlightAware ADS-B (KBGR)
02:37PM 45.6687 -68.5477 196° South 497 572 36,000  Level FlightAware ADS-B (CYSG)
02:38PM 45.6001 -68.5751 196° South 500 575 36,000  Level FlightAware ADS-B (CYSG)
02:38PM 45.5310 -68.6027 196° South 500 575 36,000  Level FlightAware ADS-B (KBGR)
02:39PM 45.4617 -68.6302 196° South 498 573 36,000  Level FlightAware ADS-B (CYSG)
02:40PM 45.4016 -68.6541 196° South 500 575 36,000  Level FlightAware ADS-B (KBGR)
02:40PM 45.3129 -68.6893 196° South 499 574 36,000  Level FlightAware ADS-B (CYSG)
02:41PM 45.2503 -68.7141 196° South 501 577 36,000  Level FlightAware ADS-B (KBGR)
02:41PM 45.1705 -68.7456 196° South 502 578 36,000  Level FlightAware ADS-B (CYSG)
02:42PM 45.0959 -68.7749 196° South 503 579 36,000  Level FlightAware ADS-B (KBGR)
02:42PM 45.0266 -68.8021 196° South 504 580 36,000  Level FlightAware ADS-B (KBGR)
02:43PM 44.9429 -68.8348 195° South 503 579 36,000  Level FlightAware ADS-B (KBGR)
02:43PM 44.8885 -68.8562 197° South 499 574 36,000  Level FlightAware ADS-B (KBGR)
02:44PM 44.8332 -68.8832 204° Southwest 488 562 36,000  Level FlightAware ADS-B (CYSG)
02:44PM 44.8281 -68.8868 210° Southwest 479 551 36,000  Level FlightAware ADS-B (KBGR)
02:44PM 44.8067 -68.9046 215° Southwest 472 543 36,000  Level FlightAware ADS-B (KBGR)
02:44PM 44.7732 -68.9393 216° Southwest 469 540 36,000  Level FlightAware ADS-B (CYQI)
02:45PM 44.7116 -69.0017 216° Southwest 470 541 36,000  Level FlightAware ADS-B (CYSG)
02:45PM 44.6597 -69.0538 216° Southwest 469 540 36,000  Level FlightAware ADS-B (CYSG)
02:46PM 44.6002 -69.1137 216° Southwest 468 539 36,000  Level FlightAware ADS-B (KBGR)
02:46PM 44.5504 -69.1638 216° Southwest 468 539 36,000  Level FlightAware ADS-B (KBGR)
02:47PM 44.4892 -69.2252 216° Southwest 469 540 36,000  Level FlightAware ADS-B (CYSG)
02:47PM 44.4324 -69.2821 216° Southwest 470 541 36,000  Level FlightAware ADS-B (KBGR)
02:48PM 44.3837 -69.3307 216° Southwest 472 543 36,000  Level FlightAware ADS-B (CYSG)
02:49PM 44.2533 -69.4604 216° Southwest 474 545 36,000  Level FlightAware ADS-B (KBGR)
02:50PM 44.1996 -69.5137 215° Southwest 476 548 36,000  Level FlightAware ADS-B (KBGR)
02:50PM 44.1279 -69.5844 215° Southwest 477 549 36,000  Level FlightAware ADS-B (KBGR)
02:51PM 44.0256 -69.6851 215° Southwest 476 548 36,000  Level FlightAware ADS-B (KBGR)
02:52PM 43.9704 -69.7393 215° Southwest 477 549 36,000  Level FlightAware ADS-B (KASH)
02:52PM 43.9138 -69.7946 216° Southwest 472 543 36,000  Level FlightAware ADS-B (KASH)
02:53PM 43.8315 -69.8751 216° Southwest 475 547 36,000  Level FlightAware ADS-B (KASH)
02:53PM 43.8079 -69.8982 216° Southwest 476 548 36,000  Level FlightAware ADS-B (KASH)
02:54PM 43.7488 -69.9556 216° Southwest 477 549 36,000  Level FlightAware ADS-B (KASH)
02:54PM 43.6801 -70.0221 215° Southwest 482 555 36,000  Level FlightAware ADS-B (KBOS)
02:55PM 43.6215 -70.0788 215° Southwest 482 555 36,000  Level FlightAware ADS-B (KBOS)
02:55PM 43.5865 -70.1126 216° Southwest 475 547 36,000  Level FlightAware ADS-B (KASH)
02:55PM 43.5765 -70.1224 216° Southwest 475 547 36,000  Level FlightAware ADS-B (KASH)
02:56PM 43.5206 -70.1763 215° Southwest 481 554 36,000  Level FlightAware ADS-B (KBOS)
02:56PM 43.4735 -70.2215 216° Southwest 475 547 36,000  Level FlightAware ADS-B (KASH)
02:57PM 43.4046 -70.2876 215° Southwest 482 555 36,000  Level FlightAware ADS-B (KBOS)
02:58PM 43.3433 -70.3462 215° Southwest 483 556 36,000  Level FlightAware ADS-B (KBOS)
02:58PM 43.2878 -70.3991 215° Southwest 484 557 36,000  Level FlightAware ADS-B (KBOS)
02:59PM 43.2136 -70.4698 215° Southwest 482 555 36,000  Level FlightAware ADS-B (KBOS)
02:59PM 43.1503 -70.5298 215° Southwest 483 556 36,000  Level FlightAware ADS-B (KBOS)
03:00PM 43.0901 -70.5868 215° Southwest 476 548 36,000  Level FlightAware ADS-B (KASH)
03:00PM 43.0256 -70.6478 215° Southwest 483 556 36,000  Level FlightAware ADS-B (KBOS)
03:01PM 42.9515 -70.7175 215° Southwest 477 549 36,000  Level FlightAware ADS-B (KASH)
03:02PM 42.8929 -70.7725 215° Southwest 483 556 36,000  Level FlightAware ADS-B (KBOS)
03:02PM 42.8370 -70.8249 215° Southwest 481 554 36,000  Level FlightAware ADS-B (KBOS)
03:03PM 42.7796 -70.8786 215° Southwest 482 555 36,000  Level FlightAware ADS-B (KBOS)
03:03PM 42.7043 -70.9488 214° Southwest 483 556 36,000  Level FlightAware ADS-B (KBOS)
03:04PM 42.6194 -71.0278 214° Southwest 484 557 36,000  Level FlightAware ADS-B (KASH)
03:05PM 42.5634 -71.0796 214° Southwest 484 557 36,000  Level FlightAware ADS-B (KASH)
03:05PM 42.5061 -71.1327 214° Southwest 482 555 36,000  Level FlightAware ADS-B (KBOS)
03:05PM 42.4805 -71.1562 215° Southwest 476 548 36,000  Level FlightAware ADS-B (KASH)
03:06PM 42.4255 -71.2070 214° Southwest 483 556 36,000  Level FlightAware ADS-B (KBOS)
03:06PM 42.3696 -71.2584 214° Southwest 484 557 36,000  Level FlightAware ADS-B (KASH)
03:07PM 42.3131 -71.3102 214° Southwest 484 557 36,000  Level FlightAware ADS-B (KASH)
03:08PM 42.2433 -71.3741 214° Southwest 484 557 36,000  Level FlightAware ADS-B
03:08PM 42.1628 -71.4475 214° Southwest 483 556 36,000  Level FlightAware ADS-B
03:09PM 42.1033 -71.5016 214° Southwest 483 556 36,000  Level FlightAware ADS-B (KBOS)
03:09PM 42.0445 -71.5550 214° Southwest 482 555 36,000  Level FlightAware ADS-B (KOWD)
03:10PM 42.0100 -71.5874 216° Southwest 479 551 36,000  Level FlightAware ADS-B (KOWD)
03:10PM 41.9562 -71.6457 220° Southwest 477 549 36,000  Level FlightAware ADS-B (KASH)
03:11PM 41.9040 -71.7027 219° Southwest 478 550 36,000  Level FlightAware ADS-B (KASH)
03:11PM 41.8527 -71.7570 218° Southwest 477 549 36,000  Level FlightAware ADS-B
03:12PM 41.7998 -71.8126 218° Southwest 477 549 36,000  Level FlightAware ADS-B (KBOS)
03:12PM 41.7359 -71.8795 218° Southwest 476 548 36,000  Level FlightAware ADS-B (KSNC)
03:13PM 41.6699 -71.9485 218° Southwest 475 547 36,000  Level FlightAware ADS-B (KASH)
03:13PM 41.6118 -72.0089 218° Southwest 476 548 36,000  Level FlightAware ADS-B
03:14PM 41.5489 -72.0743 218° Southwest 477 549 36,000  Level FlightAware ADS-B (KSNC)
03:15PM 41.4809 -72.1445 218° Southwest 477 549 36,000  Level FlightAware ADS-B
03:15PM 41.4196 -72.2078 218° Southwest 476 548 36,000  Level FlightAware ADS-B
03:16PM 41.3294 -72.3007 218° Southwest 477 549 36,000  Level FlightAware ADS-B
03:17PM 41.2747 -72.3569 218° Southwest 477 549 36,000  Level FlightAware ADS-B
03:17PM 41.2217 -72.4112 218° Southwest 478 550 36,000  Level FlightAware ADS-B
03:18PM 41.1860 -72.4478 218° Southwest 478 550 36,000  Level FlightAware ADS-B
03:18PM 41.0933 -72.5424 218° Southwest 477 549 36,000  Level FlightAware ADS-B (KSNC)
03:19PM 41.0247 -72.6121 218° Southwest 477 549 36,000  Level FlightAware ADS-B (KSNC)
03:20PM 40.9530 -72.6849 218° Southwest 478 550 36,000  Level FlightAware ADS-B (KSNC)
03:20PM 40.9373 -72.7008 218° Southwest 478 550 36,000  Level FlightAware ADS-B
03:21PM 40.8654 -72.7734 217° Southwest 479 551 36,000  Level FlightAware ADS-B (KSNC)
03:21PM 40.7958 -72.8435 217° Southwest 477 549 36,000  Level FlightAware ADS-B (KSNC)
03:22PM 40.7233 -72.9164 217° Southwest 478 550 36,000  Level FlightAware ADS-B (KSNC)
03:22PM 40.6681 -72.9717 217° Southwest 479 551 36,000  Level FlightAware ADS-B (KSNC)
03:23PM 40.5970 -73.0428 217° Southwest 480 552 36,000  Level FlightAware ADS-B (KSNC)
03:24PM 40.5423 -73.0973 217° Southwest 481 554 36,000  Level FlightAware ADS-B (KSNC)
03:24PM 40.4720 -73.1673 217° Southwest 482 555 36,000  Level FlightAware ADS-B (KSNC)
03:25PM 40.4163 -73.2226 217° Southwest 483 556 36,000  Level FlightAware ADS-B (KSNC)
03:26PM 40.3370 -73.3012 217° Southwest 482 555 36,000  Level FlightAware ADS-B (KWWD)
03:26PM 40.2760 -73.3615 217° Southwest 483 556 36,000  Level FlightAware ADS-B (KSNC)
03:27PM 40.2182 -73.4183 217° Southwest 483 556 36,000  Level FlightAware ADS-B (KSNC)
03:27PM 40.1524 -73.4831 217° Southwest 483 556 36,000  Level FlightAware ADS-B (KPHL)
03:28PM 40.0971 -73.5374 217° Southwest 484 557 36,000  Level FlightAware ADS-B (KPHL)
03:28PM 40.0382 -73.5950 217° Southwest 486 559 36,000  Level FlightAware ADS-B (KSNC)
03:29PM 39.9757 -73.6560 217° Southwest 485 558 36,000  Level FlightAware ADS-B (KSNC)
03:30PM 39.8972 -73.7325 217° Southwest 486 559 36,000  Level FlightAware ADS-B (KSNC)
03:30PM 39.8457 -73.7825 217° Southwest 486 559 36,000  Level FlightAware ADS-B (KSNC)
03:31PM 39.8215 -73.8060 217° Southwest 487 560 36,000  Level FlightAware ADS-B (KSNC)
03:31PM 39.7119 -73.9121 217° Southwest 487 560 36,000  Level FlightAware ADS-B (KWWD)
03:32PM 39.6433 -73.9782 217° Southwest 487 560 36,000  Level FlightAware ADS-B (KPHL)
03:33PM 39.5852 -74.0342 217° Southwest 487 560 36,000  Level FlightAware ADS-B (KPHL)
03:33PM 39.5337 -74.0838 217° Southwest 486 559 36,000  Level FlightAware ADS-B (KPHL)
03:34PM 39.4763 -74.1387 217° Southwest 485 558 36,000  Level FlightAware ADS-B (KPHL)
03:34PM 39.4206 -74.1919 217° Southwest 485 558 36,000  Level FlightAware ADS-B (KWWD)
03:35PM 39.3538 -74.2558 217° Southwest 485 558 36,000  Level FlightAware ADS-B (KWWD)
03:35PM 39.2934 -74.3133 217° Southwest 480 552 36,000  Level FlightAware ADS-B (KWWD)
03:36PM 39.2208 -74.3823 217° Southwest 481 554 36,000  Level FlightAware ADS-B (KWWD)
03:36PM 39.2200 -74.3830 216° Southwest 487 560 36,000  Level FlightAware ADS-B (KPHL)
03:37PM 39.1317 -74.4666 217° Southwest 481 554 36,000  Level FlightAware ADS-B (KWWD)
03:38PM 39.0357 -74.5572 216° Southwest 488 562 36,000  Level FlightAware ADS-B (KPHL)
03:38PM 38.9726 -74.6167 217° Southwest 485 558 36,000  Level FlightAware ADS-B (KWWD)
03:39PM 38.8489 -74.7327 217° Southwest 484 557 36,000  Level FlightAware ADS-B (KWWD)
03:40PM 38.7638 -74.8122 217° Southwest 484 557 36,000  Level FlightAware ADS-B (KWWD)
03:41PM 38.7080 -74.8642 217° Southwest 482 555 36,000  Level FlightAware ADS-B (KWWD)
03:41PM 38.7525 -74.8227 216° Southwest 489 563 36,000  Level FlightAware ADS-B (KSBY)
03:45PM 38.2487 -75.2885 216° Southwest 492 566 36,000  Level FlightAware ADS-B (KSBY)
03:46PM 38.1872 -75.3448 216° Southwest 494 568 36,000  Level FlightAware ADS-B (KSBY)
03:46PM 38.1260 -75.4008 216° Southwest 494 568 36,000  Level FlightAware ADS-B (KSBY)
03:47PM 38.0422 -75.4745 211° Southwest 491 565 36,000  Level FlightAware ADS-B (KWWD)
03:47PM 37.9810 -75.5197 211° Southwest 499 574 36,000  Level FlightAware ADS-B (KSBY)
03:48PM 37.9126 -75.5727 211° Southwest 499 574 36,000  Level FlightAware ADS-B (KSBY)
03:48PM 37.8230 -75.6409 211° Southwest 493 567 36,000  Level FlightAware ADS-B (KWWD)
03:49PM 37.7454 -75.6993 211° Southwest 494 568 36,000  Level FlightAware ADS-B (KWWD)
03:50PM 37.6859 -75.7441 211° Southwest 494 568 36,000  Level FlightAware ADS-B (KWWD)
03:50PM 37.6090 -75.8018 211° Southwest 502 578 36,000  Level FlightAware ADS-B (KWWD)
03:51PM 37.5224 -75.8625 206° Southwest 499 574 36,000  Level FlightAware ADS-B (KWWD)
03:52PM 37.4220 -75.9161 205° Southwest 499 574 36,000  Level FlightAware ADS-B (KWWD)
03:53PM 37.3125 -75.9768 203° Southwest 506 582 36,000  Level FlightAware ADS-B (KWWD)
03:53PM 37.2450 -76.0129 203° Southwest 506 582 36,000  Level FlightAware ADS-B (KWWD)
03:54PM 37.1721 -76.0518 203° Southwest 505 581 36,000  Level FlightAware ADS-B (KWWD)
03:56PM 36.8447 -76.2418 207° Southwest 502 578 36,000  Level FlightAware ADS-B (KWWD)
03:57PM 36.7885 -76.2923 214° Southwest 492 566 36,000  Level FlightAware ADS-B (KWWD)
03:59PM 36.4777 -76.4402 200° South 496 571 36,000  Level FlightAware ADS-B (KWWD)
04:00PM 36.4011 -76.4772 200° South 506 582 36,000  Level Washington Center
04:01PM 36.2692 -76.5322 199° South 506 582 36,000  Level Washington Center
04:02PM 36.1372 -76.5925 200° South 506 582 36,000  Level Washington Center
04:03PM 36.0053 -76.6525 200° South 506 582 36,000  Level Washington Center
04:04PM 35.8711 -76.7097 199° South 511 588 36,000  Level Washington Center
04:05PM 35.7392 -76.7717 201° Southwest 506 582 36,000  Level Washington Center
04:06PM 35.5989 -76.8361 200° South 499 574 36,000  Level Washington Center
04:07PM 35.4625 -76.8925 199° South 494 568 36,000  Level Washington Center
04:08PM 35.3306 -76.9517 200° South 505 581 36,000  Level Washington Center
04:09PM 35.2006 -77.0078 199° South 505 581 36,000  Level Washington Center
04:10PM 35.0767 -77.0667 201° Southwest 512 589 36,000  Level Washington Center
04:11PM 34.9297 -77.1272 199° South 507 583 36,000  Level Washington Center
04:12PM 34.8122 -77.1833 201° Southwest 507 583 36,000  Level Washington Center
04:13PM 34.6758 -77.2436 200° South 512 589 36,000  Level Washington Center
04:14PM 34.5414 -77.3014 199° South 512 589 36,000  Level Washington Center
04:15PM 34.4050 -77.3592 199° South 512 589 36,000  Level Washington Center
04:16PM 34.2686 -77.4164 199° South 512 589 36,000  Level Washington Center
04:17PM 34.1361 -77.4714 199° South 512 589 36,000  Level Washington Center
04:18PM 33.9608 -77.5422 199° South 503 579 36,000  Level Jacksonville Center
04:19PM 33.8256 -77.6006 200° South 510 587 36,000  Level Jacksonville Center
04:20PM 33.6922 -77.6583 200° South 515 593 36,000  Level Jacksonville Center
04:21PM 33.5428 -77.7244 200° South 524 603 36,000  Level Jacksonville Center
04:22PM 33.4072 -77.7797 199° South 518 596 36,000  Level Jacksonville Center
04:23PM 33.2739 -77.8369 200° South 518 596 36,000  Level Jacksonville Center
04:24PM 33.1406 -77.8942 200° South 518 596 36,000  Level Jacksonville Center
04:25PM 33.0053 -77.9514 200° South 518 596 36,000  Level Jacksonville Center
04:26PM 32.8717 -78.0056 199° South 518 596 36,000  Level Jacksonville Center
04:27PM 32.7381 -78.0597 199° South 518 596 36,000  Level Jacksonville Center
04:28PM 32.6044 -78.1136 199° South 518 596 36,000  Level Jacksonville Center
04:29PM 32.4708 -78.1675 199° South 513 590 36,000  Level Jacksonville Center
04:30PM 32.3639 -78.2075 198° South 513 590 36,000  Level Jacksonville Center
04:31PM 32.2222 -78.2736 202° Southwest 508 585 36,000  Level Jacksonville Center
04:32PM 32.0886 -78.3294 199° South 513 590 36,000  Level Jacksonville Center
04:33PM 31.9611 -78.3822 199° South 503 579 36,000  Level Jacksonville Center
04:34PM 31.8272 -78.4353 199° South 503 579 36,000  Level Jacksonville Center
04:35PM 31.6956 -78.4928 200° South 503 579 36,000  Level Jacksonville Center
04:36PM 31.5617 -78.5431 198° South 503 579 36,000  Level Jacksonville Center
04:37PM 31.4319 -78.5956 199° South 497 572 36,000  Level Jacksonville Center
04:38PM 31.3022 -78.6475 199° South 497 572 36,000  Level Jacksonville Center
04:39PM 31.1703 -78.6972 198° South 502 578 36,000  Level Jacksonville Center
04:40PM 31.0386 -78.7539 200° South 496 571 36,000  Level Jacksonville Center
04:41PM 30.8900 -78.8089 198° South 501 577 36,000  Level Jacksonville Center
04:44PM 30.6072 -78.9228 199° South 499 574 36,000  Level Miami Center
04:45PM 30.4478 -78.9847 199° South 500 575 36,000  Level Miami Center
04:46PM 30.3164 -79.0417 201° Southwest 501 577 36,000  Level Miami Center
04:47PM 30.1836 -79.1008 201° Southwest 507 583 36,000  Level Miami Center
04:48PM 30.0494 -79.1583 200° South 511 588 36,000  Level Miami Center
04:49PM 29.9169 -79.2156 201° Southwest 512 589 36,000  Level Miami Center
04:50PM 29.7836 -79.2736 201° Southwest 513 590 36,000  Level Miami Center
04:56PM 28.9575 -79.5910 190° South 518 596 36,000  Level FlightAware ADS-B (KMCO)
04:57PM 28.7612 -79.6280 189° South 515 593 36,000  Level FlightAware ADS-B (KMCO)
04:58PM 28.6225 -79.6529 189° South 514 592 36,000  Level FlightAware ADS-B (KMCO)
04:59PM 28.4266 -79.6880 189° South 512 589 36,000  Level FlightAware ADS-B (KMCO)
05:01PM 28.2391 -79.7214 189° South 513 590 36,000  Level FlightAware ADS-B (KMCO)
05:01PM 28.1498 -79.7474 206° Southwest 498 573 36,000  Level FlightAware ADS-B (KMCO)
05:02PM 28.0661 -79.7971 208° Southwest 496 571 36,000  Level FlightAware ADS-B (KMCO)
05:03PM 27.9339 -79.8745 207° Southwest 499 574 36,000  Level FlightAware ADS-B (KMCO)
05:04PM 27.8448 -79.9264 207° Southwest 500 575 36,000  Level FlightAware ADS-B (KMCO)
05:04PM 27.7753 -79.9668 207° Southwest 498 573 36,000  Level FlightAware ADS-B (RJTF)
05:06PM 27.6275 -80.0527 207° Southwest 497 572 36,000  Level FlightAware ADS-B (KMCO)
05:06PM 27.5392 -80.1039 207° Southwest 494 568 36,000  Level FlightAware ADS-B (KMCO)
05:07PM 27.4284 -80.1680 207° Southwest 498 573 36,000  Level FlightAware ADS-B (RJTF)
05:08PM 27.3657 -80.2042 207° Southwest 493 567 36,000  Level FlightAware ADS-B (KMCO)
05:09PM 27.2899 -80.2480 207° Southwest 495 570 36,000  Level FlightAware ADS-B (RJTF)
05:09PM 27.2326 -80.2809 207° Southwest 495 570 36,000  Level FlightAware ADS-B (RJTF)
05:10PM 27.1022 -80.3559 207° Southwest 494 568 36,000  Level FlightAware ADS-B (KMCO)
05:10PM 27.0406 -80.3913 207° Southwest 494 568 36,000  Level FlightAware ADS-B (RJTF)
05:11PM 26.9783 -80.4270 207° Southwest 491 565 36,000  Level FlightAware ADS-B (RJTF)
05:12PM 26.8882 -80.4785 207° Southwest 490 564 36,000  Level FlightAware ADS-B (KMCO)
05:12PM 26.8179 -80.5186 207° Southwest 490 564 36,000  Level FlightAware ADS-B (RJTF)
05:13PM 26.7330 -80.5671 207° Southwest 491 565 36,000  Level FlightAware ADS-B (RJTF)
05:14PM 26.6673 -80.6046 207° Southwest 492 566 36,000  Level FlightAware ADS-B (RJTF)
05:14PM 26.5902 -80.6484 207° Southwest 492 566 36,000  Level FlightAware ADS-B (KMCO)
05:15PM 26.5184 -80.6891 207° Southwest 491 565 36,000  Level FlightAware ADS-B (RJTF)
05:15PM 26.4242 -80.7426 207° Southwest 491 565 36,000  Level FlightAware ADS-B (RJTF)
05:16PM 26.3668 -80.7751 207° Southwest 490 564 36,000  Level FlightAware ADS-B (RJTF)
05:17PM 26.3062 -80.8136 214° Southwest 485 558 36,000  Level FlightAware ADS-B (RJTF)
05:17PM 26.2481 -80.8579 214° Southwest 486 559 36,000  Level FlightAware ADS-B (RJTF)
05:18PM 26.2397 -80.8642 214° Southwest 486 559 36,000  Level FlightAware ADS-B (RJTF)
05:18PM 26.1524 -80.9302 214° Southwest 487 560 36,000  Level FlightAware ADS-B (RJTF)
05:19PM 26.0722 -80.9914 214° Southwest 483 556 36,000  Level Miami Center
05:24PM 25.5261 -81.5128 189° South 485 558 36,000  Level FlightAware ADS-B (KMCO)
05:25PM 25.4256 -81.5149 169° South 483 556 36,000 -240 Level FlightAware ADS-B (KMCO)
05:26PM 25.3267 -81.4940 169° South 481 554 35,700 -600 Descending FlightAware ADS-B (KMCO)
05:27PM 25.1911 -81.4655 169° South 476 548 35,000 -840 Descending FlightAware ADS-B (KMCO)
05:28PM 25.0192 -81.4294 169° South 476 548 33,700 -960 Descending Miami Center
05:29PM 24.8928 -81.4031 169° South 468 539 32,700 -960 Descending Miami Center
05:30PM 24.7661 -81.3764 169° South 467 537 31,800 -1,020 Descending Miami Center
05:31PM 24.6136 -81.3442 169° South 466 536 30,600 -1,200 Descending Miami Center
05:32PM 24.4856 -81.3217 171° South 466 536 29,300 -1,440 Descending Miami Center
05:33PM 24.3719 -81.3750 203° Southwest 444 511 27,600 -1,560 Descending Miami Center
05:34PM 24.2722 -81.4444 212° Southwest 429 494 26,100 -1,560 Descending Miami Center
05:35PM 24.1758 -81.5106 212° Southwest 414 476 24,400 -1,800 Descending Miami Center
05:36PM 24.0619 -81.5875 212° Southwest 405 466 22,400 -1,980 Descending Miami Center
05:38PM 23.9445 -81.6783 215° Southwest  Level Estimated
05:45PM 23.2281 -82.2275 215° Southwest  Level Estimated
05:46PM 23.1257 -82.3055 241° Southwest  Level Estimated
05:47PM 23.0231 -82.3833 223° Southwest  Level Estimated
05:48PM 22.9891 -82.4091 223° Southwest  Level Estimated
05:49PM 22.9891 -82.4091 223° Southwest  Level Estimated
05:50PM 22.9891 -82.4091 223° Southwest  Level Estimated